sensor_id;sensor_type;location;lat;lon;timestamp;pressure;altitude;pressure_sealevel;temperature;humidity
63285;BME280;49409;55.708;37.522;2022-11-15T00:01:35;99985.72;;;6.25;35.01
63285;BME280;49409;55.708;37.522;2022-11-15T00:04:03;99996.06;;;6.43;35.02
63285;BME280;49409;55.708;37.522;2022-11-15T00:06:29;100014.59;;;6.57;34.82
63285;BME280;49409;55.708;37.522;2022-11-15T00:08:57;99993.91;;;6.59;34.65
63285;BME280;49409;55.708;37.522;2022-11-15T00:11:23;100011.94;;;6.64;35.05
63285;BME280;49409;55.708;37.522;2022-11-15T00:13:48;100011.03;;;6.52;35.26
63285;BME280;49409;55.708;37.522;2022-11-15T00:16:14;99971.84;;;6.41;34.63
63285;BME280;49409;55.708;37.522;2022-11-15T00:18:39;99999.25;;;6.48;35.17
63285;BME280;49409;55.708;37.522;2022-11-15T00:21:11;99992.06;;;6.33;35.40
63285;BME280;49409;55.708;37.522;2022-11-15T00:23:37;99985.66;;;6.22;34.74
63285;BME280;49409;55.708;37.522;2022-11-15T00:26:03;99979.00;;;6.19;35.23
63285;BME280;49409;55.708;37.522;2022-11-15T00:28:29;99991.88;;;6.19;35.08
63285;BME280;49409;55.708;37.522;2022-11-15T00:31:03;99963.72;;;6.14;35.48
63285;BME280;49409;55.708;37.522;2022-11-15T00:33:29;99980.84;;;6.11;35.30
63285;BME280;49409;55.708;37.522;2022-11-15T00:36:03;99973.84;;;6.14;35.42
63285;BME280;49409;55.708;37.522;2022-11-15T00:38:33;99984.94;;;6.25;35.80
63285;BME280;49409;55.708;37.522;2022-11-15T00:41:00;99956.63;;;6.10;35.33
63285;BME280;49409;55.708;37.522;2022-11-15T00:43:26;99977.88;;;6.24;35.22
63285;BME280;49409;55.708;37.522;2022-11-15T00:45:52;99959.75;;;6.08;35.27
63285;BME280;49409;55.708;37.522;2022-11-15T00:48:17;99960.19;;;6.14;35.32
63285;BME280;49409;55.708;37.522;2022-11-15T00:50:43;99971.53;;;6.12;35.23
63285;BME280;49409;55.708;37.522;2022-11-15T00:53:08;99943.69;;;6.03;35.03
63285;BME280;49409;55.708;37.522;2022-11-15T00:55:34;99971.53;;;6.12;35.27
63285;BME280;49409;55.708;37.522;2022-11-15T00:58:00;99969.88;;;6.08;35.56
63285;BME280;49409;55.708;37.522;2022-11-15T01:00:25;99969.19;;;6.14;34.92
63285;BME280;49409;55.708;37.522;2022-11-15T01:02:51;99951.16;;;6.10;34.92
63285;BME280;49409;55.708;37.522;2022-11-15T01:05:16;99939.06;;;6.07;35.39
63285;BME280;49409;55.708;37.522;2022-11-15T01:07:42;99960.66;;;6.20;34.85
63285;BME280;49409;55.708;37.522;2022-11-15T01:10:08;99947.16;;;6.00;35.16
63285;BME280;49409;55.708;37.522;2022-11-15T01:12:34;99934.13;;;5.90;35.03
63285;BME280;49409;55.708;37.522;2022-11-15T01:15:00;99941.69;;;6.00;34.81
63285;BME280;49409;55.708;37.522;2022-11-15T01:17:26;99947.16;;;6.00;35.28
63285;BME280;49409;55.708;37.522;2022-11-15T01:19:51;99927.50;;;5.91;35.37
63285;BME280;49409;55.708;37.522;2022-11-15T01:22:17;99922.84;;;5.91;34.94
63285;BME280;49409;55.708;37.522;2022-11-15T01:24:42;99938.72;;;6.12;35.34
63285;BME280;49409;55.708;37.522;2022-11-15T01:27:08;99943.91;;;6.21;34.97
63285;BME280;49409;55.708;37.522;2022-11-15T01:29:33;99918.28;;;5.99;35.06
63285;BME280;49409;55.708;37.522;2022-11-15T01:31:59;99931.78;;;6.19;35.13
63285;BME280;49409;55.708;37.522;2022-11-15T01:34:24;99906.78;;;6.17;35.39
63285;BME280;49409;55.708;37.522;2022-11-15T01:36:50;99932.59;;;6.23;35.23
63285;BME280;49409;55.708;37.522;2022-11-15T01:39:16;99921.31;;;6.28;35.29
63285;BME280;49409;55.708;37.522;2022-11-15T01:41:42;99931.00;;;6.22;35.34
63285;BME280;49409;55.708;37.522;2022-11-15T01:50:11;99942.03;;;6.29;35.82
63285;BME280;49409;55.708;37.522;2022-11-15T01:52:38;99913.72;;;6.10;35.66
63285;BME280;49409;55.708;37.522;2022-11-15T01:55:22;99903.53;;;6.07;35.52
63285;BME280;49409;55.708;37.522;2022-11-15T01:57:51;99931.78;;;6.19;35.82
63285;BME280;49409;55.708;37.522;2022-11-15T02:00:18;99916.50;;;5.84;36.27
63285;BME280;49409;55.708;37.522;2022-11-15T02:02:44;99908.66;;;5.82;36.11
63285;BME280;49409;55.708;37.522;2022-11-15T02:05:10;99916.50;;;5.84;36.22
63285;BME280;49409;55.708;37.522;2022-11-15T02:07:36;99933.75;;;5.91;36.40
63285;BME280;49409;55.708;37.522;2022-11-15T02:10:07;99931.53;;;5.97;36.04
63285;BME280;49409;55.708;37.522;2022-11-15T02:12:33;99919.28;;;5.87;35.78
63285;BME280;49409;55.708;37.522;2022-11-15T02:14:59;99933.41;;;5.93;36.76
63285;BME280;49409;55.708;37.522;2022-11-15T02:20:37;99930.94;;;6.14;36.29
63285;BME280;49409;55.708;37.522;2022-11-15T02:23:37;99898.06;;;6.07;36.16
63285;BME280;49409;55.708;37.522;2022-11-15T02:29:07;99897.09;;;5.92;35.97
63285;BME280;49409;55.708;37.522;2022-11-15T02:34:28;99913.44;;;5.89;36.87
63285;BME280;49409;55.708;37.522;2022-11-15T02:37:20;99919.00;;;5.96;36.77
63285;BME280;49409;55.708;37.522;2022-11-15T02:40:34;99915.63;;;6.06;36.45
63285;BME280;49409;55.708;37.522;2022-11-15T02:42:48;99907.22;;;5.92;36.19
63285;BME280;49409;55.708;37.522;2022-11-15T02:45:39;99890.97;;;5.72;36.77
63285;BME280;49409;55.708;37.522;2022-11-15T02:48:06;99905.56;;;5.84;36.40
63285;BME280;49409;55.708;37.522;2022-11-15T02:50:33;99894.06;;;5.67;36.40
63285;BME280;49409;55.708;37.522;2022-11-15T02:52:59;99908.53;;;5.71;36.15
63285;BME280;49409;55.708;37.522;2022-11-15T02:55:36;99892.88;;;5.68;36.71
63285;BME280;49409;55.708;37.522;2022-11-15T03:01:02;99904.56;;;5.65;36.76
63285;BME280;49409;55.708;37.522;2022-11-15T03:06:13;99900.72;;;5.70;36.98
63285;BME280;49409;55.708;37.522;2022-11-15T03:09:04;99903.09;;;5.71;37.38
63285;BME280;49409;55.708;37.522;2022-11-15T03:11:38;99889.06;;;5.73;36.71
63285;BME280;49409;55.708;37.522;2022-11-15T03:14:34;99891.59;;;5.89;36.04
63285;BME280;49409;55.708;37.522;2022-11-15T03:17:23;99891.41;;;5.74;36.46
63285;BME280;49409;55.708;37.522;2022-11-15T03:19:57;99875.41;;;5.73;36.95
63285;BME280;49409;55.708;37.522;2022-11-15T03:22:27;99864.19;;;5.82;36.39
63285;BME280;49409;55.708;37.522;2022-11-15T03:25:03;99852.28;;;5.63;36.83
63285;BME280;49409;55.708;37.522;2022-11-15T03:27:35;99873.88;;;5.75;36.39
63285;BME280;49409;55.708;37.522;2022-11-15T03:30:04;99870.47;;;5.86;36.38
63285;BME280;49409;55.708;37.522;2022-11-15T03:32:33;99882.22;;;5.90;36.12
63285;BME280;49409;55.708;37.522;2022-11-15T03:37:42;99863.94;;;5.60;36.72
63285;BME280;49409;55.708;37.522;2022-11-15T03:40:10;99878.81;;;5.66;36.68
63285;BME280;49409;55.708;37.522;2022-11-15T03:45:22;99888.19;;;5.65;36.57
63285;BME280;49409;55.708;37.522;2022-11-15T03:48:14;99881.75;;;5.81;36.88
63285;BME280;49409;55.708;37.522;2022-11-15T03:50:43;99862.38;;;5.59;36.44
63285;BME280;49409;55.708;37.522;2022-11-15T03:53:09;99878.16;;;5.76;36.08
63285;BME280;49409;55.708;37.522;2022-11-15T03:55:35;99875.69;;;5.64;35.99
63285;BME280;49409;55.708;37.522;2022-11-15T03:58:01;99873.81;;;5.72;36.42
63285;BME280;49409;55.708;37.522;2022-11-15T04:00:28;99874.59;;;5.72;36.23
63285;BME280;49409;55.708;37.522;2022-11-15T04:02:54;99855.50;;;5.72;36.92
63285;BME280;49409;55.708;37.522;2022-11-15T04:05:19;99876.31;;;5.84;35.97
63285;BME280;49409;55.708;37.522;2022-11-15T04:07:45;99858.28;;;5.76;35.95
63285;BME280;49409;55.708;37.522;2022-11-15T04:10:11;99838.84;;;5.51;35.70
63285;BME280;49409;55.708;37.522;2022-11-15T04:12:39;99862.13;;;5.71;36.17
63285;BME280;49409;55.708;37.522;2022-11-15T04:15:12;99846.88;;;5.67;36.11
63285;BME280;49409;55.708;37.522;2022-11-15T04:17:43;99846.81;;;5.63;35.73
63285;BME280;49409;55.708;37.522;2022-11-15T04:23:14;99865.00;;;5.52;36.38
63285;BME280;49409;55.708;37.522;2022-11-15T04:26:07;99864.69;;;5.57;36.89
63285;BME280;49409;55.708;37.522;2022-11-15T04:28:35;99843.25;;;5.59;35.89
63285;BME280;49409;55.708;37.522;2022-11-15T04:31:20;99846.88;;;5.67;36.52
63285;BME280;49409;55.708;37.522;2022-11-15T04:33:46;99861.56;;;5.89;36.65
63285;BME280;49409;55.708;37.522;2022-11-15T04:36:11;99860.38;;;5.90;36.75
63285;BME280;49409;55.708;37.522;2022-11-15T04:38:55;99835.22;;;5.73;36.18
63285;BME280;49409;55.708;37.522;2022-11-15T04:41:21;99853.63;;;5.80;36.34
63285;BME280;49409;55.708;37.522;2022-11-15T04:43:46;99826.59;;;5.68;36.48
63285;BME280;49409;55.708;37.522;2022-11-15T04:46:12;99812.53;;;5.66;36.47
63285;BME280;49409;55.708;37.522;2022-11-15T04:48:37;99844.16;;;5.70;36.02
63285;BME280;49409;55.708;37.522;2022-11-15T04:51:03;99826.47;;;5.57;36.03
63285;BME280;49409;55.708;37.522;2022-11-15T04:53:29;99831.72;;;5.43;36.27
63285;BME280;49409;55.708;37.522;2022-11-15T04:55:54;99819.81;;;5.24;36.43
63285;BME280;49409;55.708;37.522;2022-11-15T04:58:19;99832.56;;;5.47;36.55
63285;BME280;49409;55.708;37.522;2022-11-15T05:00:45;99832.97;;;5.49;37.08
63285;BME280;49409;55.708;37.522;2022-11-15T05:03:10;99841.69;;;5.58;36.34
63285;BME280;49409;55.708;37.522;2022-11-15T05:05:55;99824.97;;;5.63;36.55
63285;BME280;49409;55.708;37.522;2022-11-15T05:08:20;99809.25;;;5.53;36.68
63285;BME280;49409;55.708;37.522;2022-11-15T05:10:47;99808.81;;;5.51;36.56
63285;BME280;49409;55.708;37.522;2022-11-15T05:13:13;99830.28;;;5.52;36.70
63285;BME280;49409;55.708;37.522;2022-11-15T05:15:38;99832.34;;;5.59;36.50
63285;BME280;49409;55.708;37.522;2022-11-15T05:18:04;99812.00;;;5.53;36.38
63285;BME280;49409;55.708;37.522;2022-11-15T05:20:29;99824.97;;;5.63;36.85
63285;BME280;49409;55.708;37.522;2022-11-15T05:22:55;99819.75;;;5.51;36.42
63285;BME280;49409;55.708;37.522;2022-11-15T05:25:23;99835.44;;;5.57;36.79
63285;BME280;49409;55.708;37.522;2022-11-15T05:27:49;99835.84;;;5.60;36.63
63285;BME280;49409;55.708;37.522;2022-11-15T05:30:15;99830.28;;;5.52;36.55
63285;BME280;49409;55.708;37.522;2022-11-15T05:32:41;99785.28;;;5.35;36.26
63285;BME280;49409;55.708;37.522;2022-11-15T05:35:08;99820.41;;;5.71;36.76
63285;BME280;49409;55.708;37.522;2022-11-15T05:37:37;99796.13;;;5.66;36.48
63285;BME280;49409;55.708;37.522;2022-11-15T05:40:03;99790.00;;;5.76;37.02
63285;BME280;49409;55.708;37.522;2022-11-15T05:42:29;99820.19;;;5.90;36.76
63285;BME280;49409;55.708;37.522;2022-11-15T05:44:56;99797.00;;;5.73;36.98
63285;BME280;49409;55.708;37.522;2022-11-15T05:47:27;99807.25;;;5.84;36.47
63285;BME280;49409;55.708;37.522;2022-11-15T05:49:55;99802.63;;;5.88;36.42
63285;BME280;49409;55.708;37.522;2022-11-15T05:52:24;99802.03;;;6.05;37.01
63285;BME280;49409;55.708;37.522;2022-11-15T05:54:51;99792.69;;;6.06;36.68
63285;BME280;49409;55.708;37.522;2022-11-15T05:57:18;99781.81;;;6.13;36.68
63285;BME280;49409;55.708;37.522;2022-11-15T05:59:44;99785.75;;;6.16;36.59
63285;BME280;49409;55.708;37.522;2022-11-15T06:02:10;99794.38;;;6.18;35.85
63285;BME280;49409;55.708;37.522;2022-11-15T06:04:36;99789.56;;;6.04;36.07
63285;BME280;49409;55.708;37.522;2022-11-15T06:07:02;99800.50;;;6.04;36.56
63285;BME280;49409;55.708;37.522;2022-11-15T06:09:27;99785.63;;;6.02;36.59
63285;BME280;49409;55.708;37.522;2022-11-15T06:11:53;99800.63;;;6.19;36.13
63285;BME280;49409;55.708;37.522;2022-11-15T06:14:18;99755.81;;;5.89;36.49
63285;BME280;49409;55.708;37.522;2022-11-15T06:16:44;99805.25;;;6.14;36.10
63285;BME280;49409;55.708;37.522;2022-11-15T06:19:09;99771.53;;;6.00;36.69
63285;BME280;49409;55.708;37.522;2022-11-15T06:21:35;99790.44;;;6.15;35.99
63285;BME280;49409;55.708;37.522;2022-11-15T06:24:00;99767.53;;;5.90;36.20
63285;BME280;49409;55.708;37.522;2022-11-15T06:26:26;99791.81;;;5.95;36.80
63285;BME280;49409;55.708;37.522;2022-11-15T06:28:52;99786.75;;;5.97;36.90
63285;BME280;49409;55.708;37.522;2022-11-15T06:31:17;99760.94;;;5.94;36.06
63285;BME280;49409;55.708;37.522;2022-11-15T06:33:42;99771.59;;;6.03;36.69
63285;BME280;49409;55.708;37.522;2022-11-15T06:36:11;99749.69;;;6.00;35.96
63285;BME280;49409;55.708;37.522;2022-11-15T06:38:39;99769.66;;;6.07;36.63
63285;BME280;49409;55.708;37.522;2022-11-15T06:41:06;99781.81;;;6.13;36.54
63285;BME280;49409;55.708;37.522;2022-11-15T06:43:33;99754.78;;;6.01;36.60
63285;BME280;49409;55.708;37.522;2022-11-15T06:46:00;99778.72;;;6.15;36.79
63285;BME280;49409;55.708;37.522;2022-11-15T06:48:26;99737.22;;;5.99;36.43
63285;BME280;49409;55.708;37.522;2022-11-15T06:50:57;99749.41;;;6.08;36.39
63285;BME280;49409;55.708;37.522;2022-11-15T06:53:23;99760.00;;;6.17;36.28
63285;BME280;49409;55.708;37.522;2022-11-15T06:55:49;99764.72;;;6.20;36.56
63285;BME280;49409;55.708;37.522;2022-11-15T06:58:15;99757.72;;;6.23;36.86
63285;BME280;49409;55.708;37.522;2022-11-15T07:00:41;99747.09;;;6.14;36.46
63285;BME280;49409;55.708;37.522;2022-11-15T07:03:06;99741.22;;;6.12;36.28
63285;BME280;49409;55.708;37.522;2022-11-15T07:05:32;99759.34;;;6.31;36.10
63285;BME280;49409;55.708;37.522;2022-11-15T07:07:59;99747.19;;;6.25;36.68
63285;BME280;49409;55.708;37.522;2022-11-15T07:10:25;99746.81;;;6.30;36.75
63285;BME280;49409;55.708;37.522;2022-11-15T07:12:51;99742.91;;;6.27;36.95
63285;BME280;49409;55.708;37.522;2022-11-15T07:15:18;99729.63;;;6.26;36.21
63285;BME280;49409;55.708;37.522;2022-11-15T07:17:44;99744.53;;;6.32;36.37
63285;BME280;49409;55.708;37.522;2022-11-15T07:20:10;99728.13;;;6.32;36.59
63285;BME280;49409;55.708;37.522;2022-11-15T07:23:02;99749.72;;;6.51;36.97
63285;BME280;49409;55.708;37.522;2022-11-15T07:25:29;99723.34;;;6.22;36.35
63285;BME280;49409;55.708;37.522;2022-11-15T07:27:55;99725.66;;;6.20;36.98
63285;BME280;49409;55.708;37.522;2022-11-15T07:30:22;99690.38;;;6.00;36.88
63285;BME280;49409;55.708;37.522;2022-11-15T07:32:52;99724.91;;;6.23;36.49
63285;BME280;49409;55.708;37.522;2022-11-15T07:35:18;99723.44;;;6.32;37.04
63285;BME280;49409;55.708;37.522;2022-11-15T07:37:43;99712.88;;;6.31;36.61
63285;BME280;49409;55.708;37.522;2022-11-15T07:40:09;99718.84;;;6.44;36.28
63285;BME280;49409;55.708;37.522;2022-11-15T07:42:34;99719.69;;;6.59;36.78
63285;BME280;49409;55.708;37.522;2022-11-15T07:45:22;99693.94;;;6.60;36.44
63285;BME280;49409;55.708;37.522;2022-11-15T07:47:49;99693.19;;;6.66;35.79
63285;BME280;49409;55.708;37.522;2022-11-15T07:50:16;99671.16;;;6.41;36.46
63285;BME280;49409;55.708;37.522;2022-11-15T07:52:42;99694.69;;;6.57;36.62
63285;BME280;49409;55.708;37.522;2022-11-15T07:55:08;99701.75;;;6.58;36.66
63285;BME280;49409;55.708;37.522;2022-11-15T07:57:34;99698.56;;;6.55;36.17
63285;BME280;49409;55.708;37.522;2022-11-15T07:59:59;99694.69;;;6.57;36.39
63285;BME280;49409;55.708;37.522;2022-11-15T08:02:25;99674.31;;;6.47;36.60
63285;BME280;49409;55.708;37.522;2022-11-15T08:04:50;99699.81;;;6.62;36.00
63285;BME280;49409;55.708;37.522;2022-11-15T08:07:16;99700.63;;;6.66;36.50
63285;BME280;49409;55.708;37.522;2022-11-15T08:09:41;99706.09;;;6.73;36.48
63285;BME280;49409;55.708;37.522;2022-11-15T08:12:07;99698.63;;;6.63;36.48
63285;BME280;49409;55.708;37.522;2022-11-15T08:14:33;99697.88;;;6.66;36.37
63285;BME280;49409;55.708;37.522;2022-11-15T08:16:58;99690.81;;;6.65;36.47
63285;BME280;49409;55.708;37.522;2022-11-15T08:19:24;99667.34;;;6.57;36.66
63285;BME280;49409;55.708;37.522;2022-11-15T08:21:49;99674.47;;;6.72;36.59
63285;BME280;49409;55.708;37.522;2022-11-15T08:24:15;99695.66;;;6.97;36.14
63285;BME280;49409;55.708;37.522;2022-11-15T08:26:41;99684.72;;;6.97;36.24
63285;BME280;49409;55.708;37.522;2022-11-15T08:29:06;99678.53;;;7.03;36.19
63285;BME280;49409;55.708;37.522;2022-11-15T08:31:34;99658.94;;;6.94;36.00
63285;BME280;49409;55.708;37.522;2022-11-15T08:34:02;99670.69;;;7.02;36.38
63285;BME280;49409;55.708;37.522;2022-11-15T08:36:28;99673.03;;;7.07;36.10
63285;BME280;49409;55.708;37.522;2022-11-15T08:38:54;99676.16;;;7.09;36.32
63285;BME280;49409;55.708;37.522;2022-11-15T08:41:30;99673.84;;;7.07;36.39
63285;BME280;49409;55.708;37.522;2022-11-15T08:43:56;99649.94;;;6.93;36.42
63285;BME280;49409;55.708;37.522;2022-11-15T08:46:21;99639.00;;;6.93;36.34
63285;BME280;49409;55.708;37.522;2022-11-15T08:48:47;99663.69;;;7.19;36.33
63285;BME280;49409;55.708;37.522;2022-11-15T08:51:12;99665.69;;;7.25;36.00
63285;BME280;49409;55.708;37.522;2022-11-15T08:53:38;99656.28;;;7.26;35.81
63285;BME280;49409;55.708;37.522;2022-11-15T08:56:07;99638.69;;;7.13;36.25
63285;BME280;49409;55.708;37.522;2022-11-15T08:58:34;99659.84;;;7.27;36.08
63285;BME280;49409;55.708;37.522;2022-11-15T09:01:00;99656.69;;;7.28;35.71
63285;BME280;49409;55.708;37.522;2022-11-15T09:03:25;99644.94;;;7.24;35.97
63285;BME280;49409;55.708;37.522;2022-11-15T09:05:57;99648.09;;;7.33;36.29
63285;BME280;49409;55.708;37.522;2022-11-15T09:08:24;99662.19;;;7.35;35.85
63285;BME280;49409;55.708;37.522;2022-11-15T09:10:50;99661.78;;;7.33;35.76
63285;BME280;49409;55.708;37.522;2022-11-15T09:13:16;99646.91;;;7.27;36.05
63285;BME280;49409;55.708;37.522;2022-11-15T09:15:41;99642.22;;;7.28;36.15
63285;BME280;49409;55.708;37.522;2022-11-15T09:18:07;99616.78;;;7.17;35.88
63285;BME280;49409;55.708;37.522;2022-11-15T09:20:32;99633.25;;;7.27;35.52
63285;BME280;49409;55.708;37.522;2022-11-15T09:23:02;99618.72;;;7.12;36.21
63285;BME280;49409;55.708;37.522;2022-11-15T09:25:28;99623.38;;;7.05;36.22
63285;BME280;49409;55.708;37.522;2022-11-15T09:27:54;99625.38;;;7.08;36.12
63285;BME280;49409;55.708;37.522;2022-11-15T09:30:20;99602.66;;;6.97;36.22
63285;BME280;49409;55.708;37.522;2022-11-15T09:32:46;99605.81;;;7.02;35.94
63285;BME280;49409;55.708;37.522;2022-11-15T09:35:11;99607.38;;;7.07;36.12
63285;BME280;49409;55.708;37.522;2022-11-15T09:37:37;99606.59;;;7.06;35.80
63285;BME280;49409;55.708;37.522;2022-11-15T09:40:03;99596.44;;;7.07;36.02
63285;BME280;49409;55.708;37.522;2022-11-15T09:45:57;99616.38;;;7.14;36.09
63285;BME280;49409;55.708;37.522;2022-11-15T09:50:51;99605.03;;;7.12;36.03
63285;BME280;49409;55.708;37.522;2022-11-15T09:53:33;99593.28;;;6.98;36.23
63285;BME280;49409;55.708;37.522;2022-11-15T09:56:05;99609.72;;;6.98;36.24
63285;BME280;49409;55.708;37.522;2022-11-15T09:58:54;99620.31;;;7.17;36.20
63285;BME280;49409;55.708;37.522;2022-11-15T10:03:58;99605.03;;;7.12;35.76
63285;BME280;49409;55.708;37.522;2022-11-15T10:06:26;99601.09;;;7.03;35.98
63285;BME280;49409;55.708;37.522;2022-11-15T10:09:06;99587.81;;;6.94;36.14
63285;BME280;49409;55.708;37.522;2022-11-15T10:11:37;99609.72;;;7.01;36.32
63285;BME280;49409;55.708;37.522;2022-11-15T10:14:18;99581.13;;;6.84;36.67
63285;BME280;49409;55.708;37.522;2022-11-15T10:22:48;99582.78;;;7.21;36.29
63285;BME280;49409;55.708;37.522;2022-11-15T10:25:40;99580.84;;;7.32;36.20
63285;BME280;49409;55.708;37.522;2022-11-15T10:28:16;99576.53;;;7.28;35.79
63285;BME280;49409;55.708;37.522;2022-11-15T10:30:51;99572.63;;;7.25;36.51
63285;BME280;49409;55.708;37.522;2022-11-15T10:33:32;99575.34;;;7.32;36.29
63285;BME280;49409;55.708;37.522;2022-11-15T10:41:14;99549.53;;;7.08;36.42
63285;BME280;49409;55.708;37.522;2022-11-15T10:43:40;99549.50;;;7.05;36.70
63285;BME280;49409;55.708;37.522;2022-11-15T10:46:23;99542.53;;;7.11;36.64
63285;BME280;49409;55.708;37.522;2022-11-15T10:48:49;99540.91;;;6.95;36.74
63285;BME280;49409;55.708;37.522;2022-11-15T10:51:28;99540.16;;;7.06;36.86
63285;BME280;49409;55.708;37.522;2022-11-15T10:53:57;99509.63;;;6.82;36.11
63285;BME280;49409;55.708;37.522;2022-11-15T10:56:25;99522.16;;;6.98;36.35
63285;BME280;49409;55.708;37.522;2022-11-15T10:58:54;99525.28;;;7.07;36.63
63285;BME280;49409;55.708;37.522;2022-11-15T11:01:26;99508.09;;;6.95;36.75
63285;BME280;49409;55.708;37.522;2022-11-15T11:04:06;99526.88;;;7.15;36.95
63285;BME280;49409;55.708;37.522;2022-11-15T11:09:28;99502.63;;;6.99;36.98
63285;BME280;49409;55.708;37.522;2022-11-15T11:11:56;99468.19;;;6.66;36.97
63285;BME280;49409;55.708;37.522;2022-11-15T11:14:26;99497.13;;;6.88;37.21
63285;BME280;49409;55.708;37.522;2022-11-15T11:22:38;99519.06;;;7.24;36.52
63285;BME280;49409;55.708;37.522;2022-11-15T11:30:24;99492.84;;;7.16;37.10
63285;BME280;49409;55.708;37.522;2022-11-15T11:33:19;99488.19;;;7.13;37.21
63285;BME280;49409;55.708;37.522;2022-11-15T11:38:44;99495.22;;;7.25;37.32
63285;BME280;49409;55.708;37.522;2022-11-15T11:46:36;99487.78;;;7.22;36.78
63285;BME280;49409;55.708;37.522;2022-11-15T11:49:09;99469.03;;;7.13;37.15
63285;BME280;49409;55.708;37.522;2022-11-15T11:51:42;99486.22;;;7.24;37.46
63285;BME280;49409;55.708;37.522;2022-11-15T11:54:14;99468.63;;;6.97;38.03
63285;BME280;49409;55.708;37.522;2022-11-15T11:56:44;99467.44;;;6.90;38.44
63285;BME280;49409;55.708;37.522;2022-11-15T11:59:19;99449.47;;;6.82;38.29
63285;BME280;49409;55.708;37.522;2022-11-15T12:01:46;99477.59;;;7.01;38.22
63285;BME280;49409;55.708;37.522;2022-11-15T12:04:43;99482.72;;;7.13;38.21
63285;BME280;49409;55.708;37.522;2022-11-15T12:07:24;99474.88;;;7.04;38.39
63285;BME280;49409;55.708;37.522;2022-11-15T12:10:05;99476.84;;;7.07;38.46
63285;BME280;49409;55.708;37.522;2022-11-15T12:12:56;99476.84;;;7.04;38.26
63285;BME280;49409;55.708;37.522;2022-11-15T12:15:45;99458.84;;;7.10;38.42
63285;BME280;49409;55.708;37.522;2022-11-15T12:18:15;99460.78;;;6.95;38.75
63285;BME280;49409;55.708;37.522;2022-11-15T12:20:58;99452.19;;;6.93;39.43
63285;BME280;49409;55.708;37.522;2022-11-15T12:23:28;99462.75;;;6.98;39.47
63285;BME280;49409;55.708;37.522;2022-11-15T12:26:00;99458.84;;;6.95;39.21
63285;BME280;49409;55.708;37.522;2022-11-15T12:28:42;99454.94;;;6.97;39.09
63285;BME280;49409;55.708;37.522;2022-11-15T12:31:24;99426.81;;;6.78;39.19
63285;BME280;49409;55.708;37.522;2022-11-15T12:33:56;99446.31;;;6.77;39.79
63285;BME280;49409;55.708;37.522;2022-11-15T12:39:01;99443.56;;;6.73;39.93
63285;BME280;49409;55.708;37.522;2022-11-15T12:41:38;99421.31;;;6.57;40.30
63285;BME280;49409;55.708;37.522;2022-11-15T12:44:04;99433.03;;;6.50;40.49
63285;BME280;49409;55.708;37.522;2022-11-15T12:59:50;99429.88;;;6.51;41.52
63285;BME280;49409;55.708;37.522;2022-11-15T13:02:19;99415.78;;;6.35;42.55
63285;BME280;49409;55.708;37.522;2022-11-15T13:04:47;99382.94;;;6.13;42.65
63285;BME280;49409;55.708;37.522;2022-11-15T13:12:56;99408.78;;;6.45;42.31
63285;BME280;49409;55.708;37.522;2022-11-15T13:18:26;99390.44;;;6.52;42.64
63285;BME280;49409;55.708;37.522;2022-11-15T13:20:52;99392.38;;;6.41;42.41
63285;BME280;49409;55.708;37.522;2022-11-15T13:23:18;99398.59;;;6.31;42.47
63285;BME280;49409;55.708;37.522;2022-11-15T13:25:52;99356.41;;;6.03;43.05
63285;BME280;49409;55.708;37.522;2022-11-15T13:30:55;99379.06;;;6.14;43.63
63285;BME280;49409;55.708;37.522;2022-11-15T13:36:05;99370.06;;;6.07;43.86
63285;BME280;49409;55.708;37.522;2022-11-15T13:38:34;99360.28;;;5.99;43.87
63285;BME280;49409;55.708;37.522;2022-11-15T13:41:19;99363.41;;;6.08;44.14
63285;BME280;49409;55.708;37.522;2022-11-15T13:43:46;99357.13;;;5.93;44.23
63285;BME280;49409;55.708;37.522;2022-11-15T13:48:42;99348.13;;;5.89;44.44
63285;BME280;49409;55.708;37.522;2022-11-15T13:54:02;99340.69;;;5.82;44.55
63285;BME280;49409;55.708;37.522;2022-11-15T13:56:28;99341.47;;;5.86;44.07
63285;BME280;49409;55.708;37.522;2022-11-15T13:58:56;99339.91;;;5.82;44.47
63285;BME280;49409;55.708;37.522;2022-11-15T14:01:23;99316.06;;;5.68;45.10
63285;BME280;49409;55.708;37.522;2022-11-15T14:03:59;99342.69;;;5.92;44.80
63285;BME280;49409;55.708;37.522;2022-11-15T14:06:28;99356.75;;;5.98;45.23
63285;BME280;49409;55.708;37.522;2022-11-15T14:09:48;99347.41;;;5.99;44.48
63285;BME280;49409;55.708;37.522;2022-11-15T14:11:53;99345.44;;;6.00;44.82
63285;BME280;49409;55.708;37.522;2022-11-15T14:14:24;99348.56;;;5.98;45.10
63285;BME280;49409;55.708;37.522;2022-11-15T14:16:55;99327.50;;;5.95;44.72
63285;BME280;49409;55.708;37.522;2022-11-15T14:27:31;99329.78;;;5.79;45.29
63285;BME280;49409;55.708;37.522;2022-11-15T14:29:56;99341.50;;;5.90;45.73
63285;BME280;49409;55.708;37.522;2022-11-15T14:32:30;99329.03;;;5.89;45.54
63285;BME280;49409;55.708;37.522;2022-11-15T14:35:02;99323.16;;;5.87;45.57
63285;BME280;49409;55.708;37.522;2022-11-15T14:37:33;99318.03;;;5.71;45.79
63285;BME280;49409;55.708;37.522;2022-11-15T14:40:01;99300.81;;;5.56;46.34
63285;BME280;49409;55.708;37.522;2022-11-15T14:42:27;99291.81;;;5.48;45.58
63285;BME280;49409;55.708;37.522;2022-11-15T14:44:53;99297.69;;;5.54;46.52
63285;BME280;49409;55.708;37.522;2022-11-15T14:47:18;99311.78;;;5.63;46.49
63285;BME280;49409;55.708;37.522;2022-11-15T14:49:44;99302.44;;;5.71;45.64
63285;BME280;49409;55.708;37.522;2022-11-15T14:52:31;99296.25;;;5.89;45.87
63285;BME280;49409;55.708;37.522;2022-11-15T14:55:02;99279.41;;;5.72;46.06
63285;BME280;49409;55.708;37.522;2022-11-15T14:57:29;99297.03;;;5.89;45.74
63285;BME280;49409;55.708;37.522;2022-11-15T14:59:54;99293.13;;;5.87;45.48
63285;BME280;49409;55.708;37.522;2022-11-15T15:02:25;99267.31;;;5.59;45.95
63285;BME280;49409;55.708;37.522;2022-11-15T15:04:52;99300.06;;;5.59;45.73
63285;BME280;49409;55.708;37.522;2022-11-15T15:07:18;99306.28;;;5.56;45.98